createdAt,value
2018-05-06T00:00:09.050Z,8.52
2018-05-06T00:01:15.914Z,8.30
2018-05-06T00:02:22.794Z,14.50
2018-05-06T00:03:29.638Z,16.45
2018-05-06T00:04:36.577Z,9.55
2018-05-06T00:05:43.466Z,14.65
2018-05-06T00:06:50.138Z,13.45
2018-05-06T00:07:57.706Z,9.23
2018-05-06T00:09:04.917Z,12.75
2018-05-06T00:10:11.812Z,16.77
2018-05-06T00:11:18.477Z,9.90
2018-05-06T00:12:25.776Z,12.10
2018-05-06T00:13:32.671Z,12.02
2018-05-06T00:14:39.479Z,12.10
2018-05-06T00:15:46.591Z,9.98
2018-05-06T00:16:54.348Z,14.10
2018-05-06T00:18:01.410Z,13.93
2018-05-06T00:19:08.372Z,13.38
2018-05-06T00:20:15.259Z,14.82
2018-05-06T00:21:22.048Z,13.85
2018-05-06T00:22:28.692Z,15.27
2018-05-06T00:23:36.447Z,12.95
2018-05-06T00:24:43.337Z,15.15
2018-05-06T00:25:50.109Z,12.75
2018-05-06T00:26:57.005Z,15.50
2018-05-06T00:28:03.746Z,13.30
2018-05-06T00:29:10.886Z,13.75
2018-05-06T00:30:17.596Z,17.70
2018-05-06T00:31:24.632Z,15.25
2018-05-06T00:32:31.436Z,11.48
2018-05-06T00:33:38.661Z,14.10
2018-05-06T00:34:45.723Z,9.18
2018-05-06T00:35:52.503Z,17.77
2018-05-06T00:36:59.378Z,11.38
2018-05-06T00:38:06.280Z,13.35
2018-05-06T00:39:13.130Z,9.45
2018-05-06T00:40:19.854Z,12.18
2018-05-06T00:41:26.949Z,10.55
2018-05-06T00:42:33.993Z,8.18
2018-05-06T00:43:40.903Z,11.77
2018-05-06T00:44:47.702Z,10.90
2018-05-06T00:45:54.585Z,13.15
2018-05-06T00:47:01.281Z,9.18
2018-05-06T00:48:07.960Z,12.07
2018-05-06T00:49:14.796Z,9.15
2018-05-06T00:50:21.973Z,9.60
2018-05-06T00:51:28.716Z,6.67
2018-05-06T00:52:35.896Z,12.55
2018-05-06T00:53:42.903Z,9.18
2018-05-06T00:54:49.594Z,13.65
2018-05-06T00:55:56.399Z,9.50
2018-05-06T00:57:03.543Z,9.60
2018-05-06T00:58:10.294Z,9.13
2018-05-06T00:59:16.989Z,6.10
2018-05-06T01:00:23.768Z,7.30
2018-05-06T01:01:30.637Z,13.27
2018-05-06T01:02:37.410Z,6.78
2018-05-06T01:03:45.262Z,12.18
2018-05-06T01:04:52.013Z,16.45
2018-05-06T01:05:58.877Z,9.13
2018-05-06T01:07:06.139Z,7.43
2018-05-06T01:08:12.915Z,6.50
2018-05-06T01:09:19.785Z,10.02
2018-05-06T01:10:26.932Z,8.93
2018-05-06T01:11:33.652Z,11.73
2018-05-06T01:12:40.579Z,10.10
2018-05-06T01:13:47.598Z,12.50
2018-05-06T01:14:54.343Z,7.35
2018-05-06T01:16:02.455Z,5.97
2018-05-06T01:17:09.615Z,7.70
2018-05-06T01:18:16.366Z,8.45
2018-05-06T01:19:23.278Z,8.40
2018-05-06T01:20:30.846Z,8.60
2018-05-06T01:21:37.686Z,5.32
2018-05-06T01:22:44.693Z,6.40
2018-05-06T01:23:51.526Z,10.73
2018-05-06T01:24:58.242Z,8.57
2018-05-06T01:26:05.157Z,7.50
2018-05-06T01:27:12.016Z,9.98
2018-05-06T01:28:18.817Z,11.25
2018-05-06T01:29:25.692Z,7.53
2018-05-06T01:30:32.404Z,11.50
2018-05-06T01:31:39.116Z,11.00
2018-05-06T01:32:46.775Z,9.17
2018-05-06T01:33:53.611Z,6.85
2018-05-06T01:35:01.525Z,6.82
2018-05-06T01:36:08.227Z,8.27
2018-05-06T01:37:14.990Z,10.55
2018-05-06T01:38:21.662Z,7.30
2018-05-06T01:39:28.351Z,9.85
2018-05-06T01:40:35.063Z,7.50
2018-05-06T01:41:41.853Z,5.87
2018-05-06T01:42:48.614Z,11.25
2018-05-06T01:43:55.374Z,4.77
2018-05-06T01:45:02.200Z,8.10
2018-05-06T01:46:08.925Z,7.20
2018-05-06T01:47:15.849Z,8.57
2018-05-06T01:48:22.757Z,5.85
2018-05-06T01:49:29.752Z,11.80
2018-05-06T01:50:36.432Z,8.57
2018-05-06T01:51:43.172Z,6.72
2018-05-06T01:52:49.964Z,6.87
2018-05-06T01:53:56.775Z,6.47
2018-05-06T01:55:03.644Z,7.22
2018-05-06T01:56:10.875Z,9.00
2018-05-06T01:57:18.390Z,11.00
2018-05-06T01:58:25.007Z,5.85
2018-05-06T01:59:31.842Z,6.22
2018-05-06T02:00:39.600Z,8.60
2018-05-06T02:01:46.342Z,7.75
2018-05-06T02:02:53.401Z,6.35
2018-05-06T02:04:00.198Z,8.30
2018-05-06T02:05:07.713Z,10.20
2018-05-06T02:06:14.465Z,9.10
2018-05-06T02:07:21.449Z,9.95
2018-05-06T02:08:28.268Z,4.28
2018-05-06T02:09:35.332Z,8.85
2018-05-06T02:10:42.181Z,10.00
2018-05-06T02:11:49.391Z,8.07
2018-05-06T02:12:56.490Z,10.32
2018-05-06T02:14:04.155Z,7.80
2018-05-06T02:15:11.691Z,9.03
2018-05-06T02:16:18.431Z,5.85
2018-05-06T02:17:25.499Z,6.32
2018-05-06T02:18:32.251Z,8.55
2018-05-06T02:19:38.979Z,8.85
2018-05-06T02:20:45.798Z,9.03
2018-05-06T02:21:52.922Z,7.82
2018-05-06T02:22:59.666Z,4.10
2018-05-06T02:24:06.794Z,7.10
2018-05-06T02:25:14.894Z,8.90
2018-05-06T02:26:21.585Z,8.70
2018-05-06T02:27:28.297Z,5.62
2018-05-06T02:28:35.386Z,7.00
2018-05-06T02:29:42.681Z,9.93
2018-05-06T02:30:49.397Z,6.32
2018-05-06T02:31:56.229Z,7.00
2018-05-06T02:33:03.285Z,5.97
2018-05-06T02:34:10.278Z,9.70
2018-05-06T02:35:17.234Z,6.18
2018-05-06T02:36:24.229Z,4.53
2018-05-06T02:37:31.080Z,5.20
2018-05-06T02:38:38.600Z,7.20
2018-05-06T02:39:45.382Z,5.60
2018-05-06T02:40:52.082Z,7.65
2018-05-06T02:41:59.031Z,10.77
2018-05-06T02:43:06.354Z,6.13
2018-05-06T02:44:14.126Z,6.47
2018-05-06T02:45:20.950Z,9.07
2018-05-06T02:46:27.978Z,9.85
2018-05-06T02:47:34.746Z,6.50
2018-05-06T02:48:41.494Z,6.50
2018-05-06T02:49:48.186Z,9.82
2018-05-06T02:50:55.178Z,6.72
2018-05-06T02:52:02.857Z,5.62
2018-05-06T02:53:10.140Z,6.15
2018-05-06T02:54:16.848Z,9.30
2018-05-06T02:55:23.608Z,9.20
2018-05-06T02:56:30.795Z,6.93
2018-05-06T02:57:37.499Z,6.90
2018-05-06T02:58:44.215Z,5.35
2018-05-06T02:59:51.015Z,6.30
2018-05-06T03:00:57.835Z,11.35
2018-05-06T03:02:04.742Z,8.68
2018-05-06T03:03:11.422Z,6.43
2018-05-06T03:04:18.179Z,4.18
2018-05-06T03:05:24.994Z,6.75
2018-05-06T03:06:32.477Z,8.88
2018-05-06T03:07:39.193Z,6.30
2018-05-06T03:08:45.994Z,6.62
2018-05-06T03:09:52.832Z,7.62
2018-05-06T03:10:59.617Z,4.47
2018-05-06T03:12:06.284Z,6.57
2018-05-06T03:13:13.160Z,8.05
2018-05-06T03:14:19.976Z,9.27
2018-05-06T03:15:27.356Z,8.00
2018-05-06T03:16:34.448Z,4.85
2018-05-06T03:17:41.527Z,7.30
2018-05-06T03:18:48.295Z,6.50
2018-05-06T03:19:55.087Z,7.40
2018-05-06T03:21:02.190Z,7.78
2018-05-06T03:22:09.003Z,7.93
2018-05-06T03:23:15.708Z,3.83
2018-05-06T03:24:22.547Z,5.78
2018-05-06T03:25:29.447Z,6.10
2018-05-06T03:26:36.141Z,4.97
2018-05-06T03:27:42.901Z,6.68
2018-05-06T03:28:50.061Z,7.15
2018-05-06T03:29:57.081Z,47.25
2018-05-06T03:31:04.432Z,31.55
2018-05-06T03:32:11.093Z,12.35
2018-05-06T03:33:17.872Z,9.82
2018-05-06T03:34:24.809Z,10.30
2018-05-06T03:35:31.617Z,4.80
2018-05-06T03:36:38.580Z,8.93
2018-05-06T03:37:45.341Z,8.70
2018-05-06T03:38:52.320Z,6.10
2018-05-06T03:39:59.228Z,15.20
2018-05-06T03:41:05.968Z,5.60
2018-05-06T03:42:12.678Z,7.37
2018-05-06T03:43:19.353Z,6.37
2018-05-06T03:44:26.139Z,4.10
2018-05-06T03:45:33.015Z,4.90
2018-05-06T03:46:39.786Z,7.57
2018-05-06T03:47:46.603Z,7.45
2018-05-06T03:48:53.451Z,5.53
2018-05-06T03:50:00.190Z,7.05
2018-05-06T03:51:07.896Z,6.45
2018-05-06T03:52:14.633Z,7.25
2018-05-06T03:53:21.352Z,6.78
2018-05-06T03:54:28.067Z,6.25
2018-05-06T03:55:35.282Z,10.65
2018-05-06T03:56:47.004Z,4.40
2018-05-06T03:57:59.247Z,7.67
2018-05-06T03:59:11.427Z,6.40
2018-05-06T04:00:23.331Z,7.67
2018-05-06T04:01:30.072Z,5.03
2018-05-06T04:02:37.087Z,5.70
2018-05-06T04:03:43.827Z,8.13
2018-05-06T04:04:50.739Z,7.55
2018-05-06T04:05:58.082Z,6.22
2018-05-06T04:07:04.750Z,8.95
2018-05-06T04:08:11.708Z,14.35
2018-05-06T04:09:18.421Z,10.30
2018-05-06T04:10:25.437Z,11.12
2018-05-06T04:11:32.229Z,3.95
2018-05-06T04:12:39.037Z,9.05
2018-05-06T04:13:45.820Z,5.37
2018-05-06T04:14:52.977Z,4.28
2018-05-06T04:16:00.147Z,12.18
2018-05-06T04:17:07.456Z,10.77
2018-05-06T04:18:14.705Z,4.22
2018-05-06T04:19:21.403Z,7.45
2018-05-06T04:20:28.224Z,6.25
2018-05-06T04:21:34.984Z,8.43
2018-05-06T04:22:41.851Z,11.38
2018-05-06T04:23:49.914Z,9.93
2018-05-06T04:24:56.654Z,6.12
2018-05-06T04:26:03.418Z,10.18
2018-05-06T04:27:10.329Z,6.90
2018-05-06T04:28:17.622Z,5.53
2018-05-06T04:29:24.590Z,8.25
2018-05-06T04:30:32.060Z,6.55
2018-05-06T04:31:38.797Z,7.80
2018-05-06T04:32:45.748Z,5.30
2018-05-06T04:33:52.601Z,5.30
2018-05-06T04:34:59.798Z,4.15
2018-05-06T04:36:06.557Z,6.53
2018-05-06T04:37:13.834Z,11.23
2018-05-06T04:38:20.503Z,17.73
2018-05-06T04:39:27.746Z,16.35
2018-05-06T04:40:36.325Z,10.18
2018-05-06T04:41:43.035Z,6.78
2018-05-06T04:42:50.024Z,8.57
2018-05-06T04:43:56.841Z,8.48
2018-05-06T04:45:04.029Z,7.37
2018-05-06T04:46:11.014Z,7.55
2018-05-06T04:47:17.813Z,6.65
2018-05-06T04:48:24.582Z,9.85
2018-05-06T04:49:31.889Z,5.43
2018-05-06T04:50:38.638Z,7.12
2018-05-06T04:51:45.482Z,5.82
2018-05-06T04:52:52.285Z,6.60
2018-05-06T04:54:00.026Z,8.13
2018-05-06T04:55:06.673Z,5.20
2018-05-06T04:56:13.516Z,5.43
2018-05-06T04:57:20.383Z,5.10
2018-05-06T04:58:27.330Z,8.27
2018-05-06T04:59:34.079Z,5.47
2018-05-06T05:00:41.688Z,8.73
2018-05-06T05:01:48.337Z,6.73
2018-05-06T05:02:55.062Z,7.95
2018-05-06T05:04:02.005Z,8.15
2018-05-06T05:05:08.740Z,6.55
2018-05-06T05:06:15.459Z,6.20
2018-05-06T05:07:22.941Z,12.05
2018-05-06T05:08:29.661Z,8.80
2018-05-06T05:09:36.437Z,8.27
2018-05-06T05:10:43.181Z,9.95
2018-05-06T05:11:49.993Z,8.18
2018-05-06T05:12:56.788Z,13.70
2018-05-06T05:14:03.551Z,11.05
2018-05-06T05:15:10.284Z,11.68
2018-05-06T05:16:17.011Z,16.25
2018-05-06T05:17:23.892Z,18.05
2018-05-06T05:18:30.645Z,20.53
2018-05-06T05:19:37.420Z,20.00
2018-05-06T05:20:44.203Z,12.75
2018-05-06T05:21:51.314Z,32.13
2018-05-06T05:22:58.286Z,54.90
2018-05-06T05:24:05.043Z,18.30
2018-05-06T05:25:11.860Z,11.10
2018-05-06T05:26:18.734Z,11.70
2018-05-06T05:27:25.540Z,12.95
2018-05-06T05:28:32.300Z,6.47
2018-05-06T05:29:39.004Z,9.77
2018-05-06T05:30:45.826Z,7.07
2018-05-06T05:31:52.548Z,6.10
2018-05-06T05:32:59.374Z,6.75
2018-05-06T05:34:06.688Z,17.83
2018-05-06T05:35:14.065Z,29.37
2018-05-06T05:36:20.958Z,15.00
2018-05-06T05:37:27.956Z,18.15
2018-05-06T05:38:34.790Z,63.00
2018-05-06T05:39:41.707Z,35.25
2018-05-06T05:40:48.475Z,41.30
2018-05-06T05:41:55.735Z,8.02
2018-05-06T05:43:02.839Z,16.37
2018-05-06T05:44:09.806Z,6.50
2018-05-06T05:45:16.813Z,4.30
2018-05-06T05:46:24.110Z,6.05
2018-05-06T05:47:30.987Z,7.78
2018-05-06T05:48:38.033Z,9.80
2018-05-06T05:49:45.287Z,6.18
2018-05-06T05:50:52.110Z,8.50
2018-05-06T05:51:59.048Z,20.15
2018-05-06T05:53:05.990Z,15.33
2018-05-06T05:54:13.018Z,6.53
2018-05-06T05:55:20.052Z,56.78
2018-05-06T05:56:26.803Z,13.00
2018-05-06T05:57:33.781Z,32.85
2018-05-06T05:58:42.023Z,11.52
2018-05-06T05:59:49.237Z,5.93
2018-05-06T06:00:55.978Z,7.03
2018-05-06T06:02:03.169Z,11.23
2018-05-06T06:03:10.501Z,16.23
2018-05-06T06:04:17.334Z,10.18
2018-05-06T06:05:24.097Z,10.38
2018-05-06T06:06:31.122Z,4.97
2018-05-06T06:07:38.082Z,4.35
2018-05-06T06:08:44.873Z,7.37
2018-05-06T06:09:51.594Z,8.18
2018-05-06T06:10:58.713Z,8.85
2018-05-06T06:12:05.469Z,9.73
2018-05-06T06:13:13.371Z,7.10
2018-05-06T06:14:20.084Z,11.07
2018-05-06T06:15:26.864Z,8.57
2018-05-06T06:16:34.825Z,12.95
2018-05-06T06:17:42.313Z,20.75
2018-05-06T06:18:49.580Z,18.53
2018-05-06T06:19:56.512Z,8.35
2018-05-06T06:21:03.267Z,10.32
2018-05-06T06:22:10.383Z,4.97
2018-05-06T06:23:17.354Z,10.23
2018-05-06T06:24:24.243Z,9.90
2018-05-06T06:25:30.971Z,15.82
2018-05-06T06:26:38.634Z,12.63
2018-05-06T06:27:45.394Z,5.60
2018-05-06T06:28:52.583Z,10.80
2018-05-06T06:29:59.246Z,10.63
2018-05-06T06:31:06.413Z,8.45
2018-05-06T06:32:13.157Z,7.03
2018-05-06T06:33:20.220Z,18.25
2018-05-06T06:34:26.939Z,15.40
2018-05-06T06:35:33.879Z,9.75
2018-05-06T06:36:41.938Z,13.25
2018-05-06T06:37:48.660Z,9.05
2018-05-06T06:38:56.293Z,16.15
2018-05-06T06:40:03.507Z,100.28
2018-05-06T06:41:10.405Z,81.10
2018-05-06T06:42:17.195Z,34.53
2018-05-06T06:43:23.910Z,16.35
2018-05-06T06:44:30.968Z,21.20
2018-05-06T06:45:37.792Z,31.30
2018-05-06T06:46:44.546Z,19.50
2018-05-06T06:47:51.702Z,43.97
2018-05-06T06:48:58.576Z,46.97
2018-05-06T06:50:05.433Z,14.25
2018-05-06T06:51:12.393Z,17.83
2018-05-06T06:52:19.456Z,12.48
2018-05-06T06:53:26.264Z,126.07
2018-05-06T06:54:33.093Z,53.08
2018-05-06T06:55:40.104Z,99.20
2018-05-06T06:56:47.131Z,13.00
2018-05-06T06:57:53.947Z,15.05
2018-05-06T06:59:00.733Z,10.10
2018-05-06T07:00:07.747Z,9.23
2018-05-06T07:01:14.679Z,19.98
2018-05-06T07:02:21.831Z,91.25
2018-05-06T07:03:29.474Z,39.38
2018-05-06T07:04:37.442Z,86.87
2018-05-06T07:05:44.258Z,31.50
2018-05-06T07:06:51.269Z,54.20
2018-05-06T07:07:58.236Z,108.37
2018-05-06T07:09:05.338Z,122.97
2018-05-06T07:10:12.198Z,49.03
2018-05-06T07:11:20.186Z,57.80
2018-05-06T07:12:26.887Z,58.63
2018-05-06T07:13:34.061Z,81.65
2018-05-06T07:14:40.968Z,34.53
2018-05-06T07:15:48.342Z,24.98
2018-05-06T07:16:55.239Z,51.17
2018-05-06T07:18:03.148Z,27.95
2018-05-06T07:19:10.354Z,38.40
2018-05-06T07:20:17.100Z,55.38
2018-05-06T07:21:23.924Z,46.83
2018-05-06T07:22:30.896Z,24.67
2018-05-06T07:23:37.671Z,8.55
2018-05-06T07:24:45.440Z,38.90
2018-05-06T07:25:52.196Z,38.90
2018-05-06T07:26:59.031Z,45.90
2018-05-06T07:28:06.046Z,47.10
2018-05-06T07:29:12.922Z,105.63
2018-05-06T07:30:20.024Z,34.25
2018-05-06T07:31:26.801Z,18.80
2018-05-06T07:32:34.596Z,38.20
2018-05-06T07:33:41.777Z,29.80
2018-05-06T07:34:48.629Z,14.73
2018-05-06T07:35:55.763Z,8.65
2018-05-06T07:37:03.010Z,9.95
2018-05-06T07:38:10.261Z,4.80
2018-05-06T07:39:17.130Z,6.57
2018-05-06T07:40:23.885Z,19.10
2018-05-06T07:41:32.160Z,4.47
2018-05-06T07:42:39.038Z,15.25
2018-05-06T07:43:46.765Z,16.05
2018-05-06T07:44:53.576Z,8.80
2018-05-06T07:46:00.488Z,8.45
2018-05-06T07:47:07.856Z,6.12
2018-05-06T07:48:14.754Z,5.55
2018-05-06T07:49:21.706Z,4.82
2018-05-06T07:50:28.542Z,5.60
2018-05-06T07:51:35.602Z,8.07
2018-05-06T07:52:44.768Z,3.70
2018-05-06T07:53:51.549Z,7.12
2018-05-06T07:54:58.260Z,4.60
2018-05-06T07:56:05.468Z,6.12
2018-05-06T07:57:12.235Z,9.98
2018-05-06T07:58:19.042Z,10.07
2018-05-06T07:59:25.985Z,14.05
2018-05-06T08:00:32.816Z,7.68
2018-05-06T08:01:40.175Z,5.93
2018-05-06T08:02:47.188Z,12.15
2018-05-06T08:03:54.058Z,6.45
2018-05-06T08:05:00.973Z,5.00
2018-05-06T08:06:08.275Z,10.68
2018-05-06T08:07:40.731Z,41.22
2018-05-06T08:08:47.488Z,25.70
2018-05-06T08:09:54.207Z,5.60
2018-05-06T08:11:01.042Z,8.73
2018-05-06T08:12:07.946Z,5.95
2018-05-06T08:13:14.782Z,3.90
2018-05-06T08:14:21.906Z,6.30
2018-05-06T08:15:29.052Z,9.70
2018-05-06T08:16:36.383Z,2.72
2018-05-06T08:17:43.131Z,4.80
2018-05-06T08:18:49.867Z,5.30
2018-05-06T08:19:56.853Z,7.37
2018-05-06T08:21:04.613Z,9.57
2018-05-06T08:22:11.420Z,8.50
2018-05-06T08:23:18.413Z,3.90
2018-05-06T08:24:25.319Z,3.83
2018-05-06T08:25:32.627Z,4.60
2018-05-06T08:26:40.390Z,3.85
2018-05-06T08:27:47.535Z,3.20
2018-05-06T08:28:54.810Z,3.08
2018-05-06T08:30:02.634Z,2.20
2018-05-06T08:31:09.562Z,4.40
2018-05-06T08:32:17.242Z,6.43
2018-05-06T08:33:24.248Z,3.42
2018-05-06T08:34:31.104Z,4.25
2018-05-06T08:35:38.014Z,4.30
2018-05-06T08:36:44.911Z,4.78
2018-05-06T08:37:51.613Z,5.03
2018-05-06T08:38:58.497Z,4.62
2018-05-06T08:40:05.730Z,5.00
2018-05-06T08:41:12.622Z,5.50
2018-05-06T08:42:19.796Z,5.87
2018-05-06T08:43:27.195Z,7.60
2018-05-06T08:44:34.121Z,4.12
2018-05-06T08:45:41.221Z,8.70
2018-05-06T08:46:48.594Z,5.65
2018-05-06T08:47:55.372Z,4.93
2018-05-06T08:49:02.263Z,3.17
2018-05-06T08:50:09.075Z,5.57
2018-05-06T08:51:16.246Z,2.40
2018-05-06T08:52:23.594Z,3.42
2018-05-06T08:53:30.730Z,6.32
2018-05-06T08:54:37.616Z,6.30
2018-05-06T08:55:45.217Z,5.03
2018-05-06T08:56:52.717Z,7.00
2018-05-06T08:58:14.688Z,4.22
2018-05-06T08:59:22.637Z,2.53
2018-05-06T09:00:29.867Z,5.30
2018-05-06T09:01:37.108Z,3.10
2018-05-06T09:02:44.450Z,4.07
2018-05-06T09:03:51.570Z,6.55
2018-05-06T09:04:58.486Z,3.00
2018-05-06T09:06:05.372Z,5.15
2018-05-06T09:07:13.523Z,1.70
2018-05-06T09:08:20.661Z,2.03
2018-05-06T09:09:28.469Z,3.00
2018-05-06T09:10:35.487Z,5.40
2018-05-06T09:11:42.660Z,3.58
2018-05-06T09:12:49.989Z,3.05
2018-05-06T09:13:57.525Z,5.60
2018-05-06T09:15:04.477Z,7.90
2018-05-06T09:16:11.363Z,5.18
2018-05-06T09:17:18.167Z,7.95
2018-05-06T09:18:25.005Z,3.75
2018-05-06T09:19:31.804Z,6.55
2018-05-06T09:20:38.850Z,8.80
2018-05-06T09:21:46.494Z,8.50
2018-05-06T09:22:53.295Z,14.65
2018-05-06T09:24:00.828Z,45.05
2018-05-06T09:25:07.711Z,20.77
2018-05-06T09:26:14.578Z,10.00
2018-05-06T09:27:23.635Z,42.75
2018-05-06T09:28:31.143Z,22.80
2018-05-06T09:29:38.358Z,23.40
2018-05-06T09:30:45.261Z,13.13
2018-05-06T09:31:52.158Z,29.20
2018-05-06T09:33:00.019Z,19.50
2018-05-06T09:34:07.165Z,126.72
2018-05-06T09:35:14.429Z,153.43
2018-05-06T09:36:22.113Z,117.10
2018-05-06T09:37:29.917Z,177.05
2018-05-06T09:38:36.809Z,155.35
2018-05-06T09:39:44.072Z,42.67
2018-05-06T09:40:56.169Z,95.55
2018-05-06T09:42:03.301Z,24.50
2018-05-06T09:43:10.168Z,20.52
2018-05-06T09:44:17.244Z,32.33
2018-05-06T09:45:24.247Z,97.57
2018-05-06T09:46:31.528Z,72.35
2018-05-06T09:47:38.583Z,51.78
2018-05-06T09:48:45.632Z,16.48
2018-05-06T09:49:53.632Z,19.40
2018-05-06T09:51:00.569Z,18.48
2018-05-06T09:52:09.160Z,9.15
2018-05-06T09:53:16.626Z,12.05
2018-05-06T09:54:23.539Z,72.10
2018-05-06T09:55:31.001Z,24.08
2018-05-06T09:56:38.229Z,106.75
2018-05-06T09:57:46.092Z,14.50
2018-05-06T09:58:55.104Z,12.75
2018-05-06T10:00:02.227Z,31.62
2018-05-06T10:01:11.027Z,23.70
2018-05-06T10:02:18.108Z,35.08
2018-05-06T10:03:25.063Z,43.95
2018-05-06T10:04:33.332Z,58.45
2018-05-06T10:05:40.232Z,15.02
2018-05-06T10:06:47.302Z,35.67
2018-05-06T10:07:55.250Z,12.40
2018-05-06T10:09:02.100Z,9.43
2018-05-06T10:10:09.022Z,38.15
2018-05-06T10:11:15.925Z,25.85
2018-05-06T10:12:23.141Z,21.58
2018-05-06T10:13:30.230Z,32.38
2018-05-06T10:14:37.210Z,17.27
2018-05-06T10:15:44.127Z,35.40
2018-05-06T10:16:53.216Z,28.65
2018-05-06T10:18:00.418Z,49.40
2018-05-06T10:19:07.276Z,39.78
2018-05-06T10:20:14.541Z,11.05
2018-05-06T10:21:21.284Z,32.92
2018-05-06T10:22:28.748Z,50.50
2018-05-06T10:23:35.859Z,54.13
2018-05-06T10:24:43.110Z,42.05
2018-05-06T10:25:49.834Z,15.95
2018-05-06T10:26:56.659Z,13.80
2018-05-06T10:28:03.628Z,15.77
2018-05-06T10:29:10.524Z,39.42
2018-05-06T10:30:17.355Z,58.35
2018-05-06T10:31:24.325Z,48.92
2018-05-06T10:32:31.237Z,27.70
2018-05-06T10:33:49.217Z,29.48
2018-05-06T10:34:56.425Z,48.97
2018-05-06T10:36:03.271Z,42.58
2018-05-06T10:37:12.208Z,32.15
2018-05-06T10:38:20.839Z,31.50
2018-05-06T10:39:27.964Z,19.85
2018-05-06T10:40:35.140Z,100.05
2018-05-06T10:41:41.984Z,56.00
2018-05-06T10:42:50.260Z,59.85
2018-05-06T10:43:57.723Z,69.30
2018-05-06T10:45:04.490Z,33.47
2018-05-06T10:46:11.971Z,27.00
2018-05-06T10:47:23.526Z,23.10
2018-05-06T10:48:30.387Z,45.88
2018-05-06T10:49:37.562Z,7.95
2018-05-06T10:50:44.422Z,25.52
2018-05-06T10:51:52.071Z,25.33
2018-05-06T10:52:58.894Z,37.60
2018-05-06T10:54:05.821Z,10.13
2018-05-06T10:55:13.689Z,30.15
2018-05-06T10:56:20.833Z,9.40
2018-05-06T10:57:28.650Z,8.82
2018-05-06T10:58:35.557Z,25.27
2018-05-06T10:59:42.452Z,16.33
2018-05-06T11:00:50.603Z,54.58
2018-05-06T11:01:58.271Z,16.40
2018-05-06T11:03:05.828Z,11.77
2018-05-06T11:04:12.945Z,15.90
2018-05-06T11:05:20.566Z,6.57
2018-05-06T11:06:27.734Z,27.33
2018-05-06T11:07:34.904Z,34.83
2018-05-06T11:08:41.859Z,102.57
2018-05-06T11:09:48.613Z,149.65
2018-05-06T11:10:56.534Z,129.18
2018-05-06T11:12:03.462Z,113.50
2018-05-06T11:13:11.167Z,29.12
2018-05-06T11:14:18.095Z,11.12
2018-05-06T11:16:28.044Z,13.60
2018-05-06T11:17:34.817Z,15.98
2018-05-06T11:18:42.234Z,8.48
2018-05-06T11:19:49.008Z,5.45
2018-05-06T11:20:59.168Z,6.22
2018-05-06T11:22:06.419Z,17.90
2018-05-06T11:23:13.311Z,6.60
2018-05-06T11:24:20.165Z,5.05
2018-05-06T11:25:27.283Z,6.53
2018-05-06T11:26:34.376Z,22.67
2018-05-06T11:27:41.135Z,27.83
2018-05-06T11:28:47.893Z,10.87
2018-05-06T11:29:56.010Z,6.18
2018-05-06T11:31:02.979Z,7.57
2018-05-06T11:32:10.387Z,9.50
2018-05-06T11:33:17.169Z,3.80
2018-05-06T11:34:24.108Z,13.80
2018-05-06T11:35:31.393Z,23.08
2018-05-06T11:36:38.267Z,8.60
2018-05-06T11:37:45.234Z,10.55
2018-05-06T11:38:52.958Z,15.15
2018-05-06T11:40:00.125Z,18.55
2018-05-06T11:41:07.076Z,5.93
2018-05-06T11:42:14.110Z,2.35
2018-05-06T11:43:21.188Z,4.15
2018-05-06T11:44:28.339Z,12.37
2018-05-06T11:45:35.280Z,8.75
2018-05-06T11:46:42.670Z,9.02
2018-05-06T11:47:49.620Z,3.47
2018-05-06T11:48:57.788Z,3.10
2018-05-06T11:50:05.662Z,2.03
2018-05-06T11:51:12.882Z,2.62
2018-05-06T11:52:20.203Z,3.20
2018-05-06T11:53:27.477Z,3.22
2018-05-06T11:54:34.323Z,4.25
2018-05-06T11:55:41.259Z,2.58
2018-05-06T11:56:48.193Z,3.62
2018-05-06T11:57:56.009Z,1.65
2018-05-06T11:59:02.823Z,3.30
2018-05-06T12:00:10.275Z,5.10
2018-05-06T12:01:17.084Z,4.30
2018-05-06T12:02:24.434Z,3.70
2018-05-06T12:03:32.069Z,4.03
2018-05-06T12:04:39.043Z,2.30
2018-05-06T12:05:46.125Z,2.20
2018-05-06T12:06:53.941Z,4.37
2018-05-06T12:08:00.800Z,1.75
2018-05-06T12:09:08.166Z,1.75
2018-05-06T12:10:14.982Z,3.20
2018-05-06T12:11:21.813Z,3.42
2018-05-06T12:12:29.866Z,1.70
2018-05-06T12:13:36.982Z,1.70
2018-05-06T12:14:43.963Z,2.03
2018-05-06T12:15:51.429Z,1.95
2018-05-06T12:16:58.471Z,2.45
2018-05-06T12:18:05.809Z,1.80
2018-05-06T12:19:13.057Z,4.20
2018-05-06T12:20:22.177Z,1.42
2018-05-06T12:21:29.428Z,2.10
2018-05-06T12:22:36.227Z,1.70
2018-05-06T12:23:43.511Z,2.60
2018-05-06T12:24:51.848Z,2.40
2018-05-06T12:26:00.097Z,3.23
2018-05-06T12:27:07.724Z,2.35
2018-05-06T12:28:14.712Z,3.50
2018-05-06T12:29:21.596Z,1.35
2018-05-06T12:30:28.650Z,2.55
2018-05-06T12:31:36.342Z,4.30
2018-05-06T12:32:43.301Z,4.78
2018-05-06T12:33:50.184Z,3.20
2018-05-06T12:34:57.082Z,2.53
2018-05-06T12:36:03.943Z,3.03
2018-05-06T12:37:11.127Z,6.53
2018-05-06T12:38:18.363Z,5.30
2018-05-06T12:39:25.427Z,2.70
2018-05-06T12:40:32.439Z,1.58
2018-05-06T12:41:39.764Z,2.78
2018-05-06T12:42:46.793Z,4.00
2018-05-06T12:43:54.629Z,1.80
2018-05-06T12:45:01.421Z,3.00
2018-05-06T12:46:08.515Z,5.60
2018-05-06T12:47:15.420Z,61.78
2018-05-06T12:48:22.221Z,24.85
2018-05-06T12:49:29.268Z,26.17
2018-05-06T12:50:36.091Z,29.12
2018-05-06T12:51:42.856Z,21.50
2018-05-06T12:52:50.361Z,19.75
2018-05-06T12:53:57.482Z,8.20
2018-05-06T12:55:04.721Z,9.07
2018-05-06T12:56:14.473Z,1.80
2018-05-06T12:57:21.351Z,12.52
2018-05-06T12:58:29.001Z,10.05
2018-05-06T12:59:36.231Z,10.70
2018-05-06T13:00:43.919Z,10.38
2018-05-06T13:01:50.834Z,9.10
2018-05-06T13:02:58.079Z,8.43
2018-05-06T13:04:04.914Z,11.52
2018-05-06T13:05:11.552Z,4.20
2018-05-06T13:06:18.638Z,9.48
2018-05-06T13:07:26.423Z,9.38
2018-05-06T13:08:33.415Z,5.47
2018-05-06T13:09:40.350Z,8.15
2018-05-06T13:10:47.370Z,8.73
2018-05-06T13:11:55.894Z,3.40
2018-05-06T13:13:08.910Z,2.58
2018-05-06T13:14:16.230Z,6.68
2018-05-06T13:15:23.117Z,7.57
2018-05-06T13:16:30.429Z,3.95
2018-05-06T13:17:38.343Z,3.12
2018-05-06T13:18:45.235Z,2.15
2018-05-06T13:19:54.077Z,3.15
2018-05-06T13:21:01.068Z,4.53
2018-05-06T13:22:07.926Z,3.60
2018-05-06T13:23:14.779Z,5.80
2018-05-06T13:24:21.620Z,1.55
2018-05-06T13:25:28.380Z,3.37
2018-05-06T13:26:35.302Z,2.30
2018-05-06T13:27:45.475Z,2.83
2018-05-06T13:28:52.215Z,2.40
2018-05-06T13:29:59.311Z,2.15
2018-05-06T13:31:06.501Z,4.62
2018-05-06T13:32:13.691Z,1.63
2018-05-06T13:33:20.567Z,1.70
2018-05-06T13:34:28.065Z,3.35
2018-05-06T13:35:35.881Z,5.20
2018-05-06T13:36:43.392Z,3.22
2018-05-06T13:37:54.062Z,2.05
2018-05-06T13:39:01.004Z,4.00
2018-05-06T13:40:09.113Z,2.75
2018-05-06T13:41:16.009Z,3.67
2018-05-06T13:42:22.969Z,2.87
2018-05-06T13:43:30.117Z,9.60
2018-05-06T13:44:36.968Z,6.10
2018-05-06T13:45:44.320Z,5.10
2018-05-06T13:46:51.205Z,4.25
2018-05-06T13:47:58.588Z,6.50
2018-05-06T13:49:05.386Z,2.78
2018-05-06T13:50:12.785Z,2.08
2018-05-06T13:51:19.822Z,4.40
2018-05-06T13:52:26.715Z,10.45
2018-05-06T13:53:34.983Z,14.18
2018-05-06T13:54:42.152Z,8.93
2018-05-06T13:55:49.040Z,5.43
2018-05-06T13:56:55.902Z,3.53
2018-05-06T13:58:02.756Z,3.47
2018-05-06T13:59:10.201Z,2.50
2018-05-06T14:00:17.361Z,1.85
2018-05-06T14:01:24.213Z,3.05
2018-05-06T14:02:33.879Z,2.83
2018-05-06T14:03:41.011Z,2.10
2018-05-06T14:04:47.800Z,2.93
2018-05-06T14:05:54.560Z,4.10
2018-05-06T14:07:01.716Z,1.73
2018-05-06T14:08:08.517Z,3.47
2018-05-06T14:09:15.538Z,1.65
2018-05-06T14:10:22.744Z,1.50
2018-05-06T14:11:29.554Z,9.48
2018-05-06T14:12:36.233Z,9.10
2018-05-06T14:13:43.723Z,4.35
2018-05-06T14:14:50.590Z,2.22
2018-05-06T14:15:57.752Z,1.92
2018-05-06T14:17:04.949Z,2.67
2018-05-06T14:18:13.331Z,4.50
2018-05-06T14:19:20.263Z,4.45
2018-05-06T14:20:30.914Z,12.87
2018-05-06T14:21:39.676Z,18.90
2018-05-06T14:22:47.214Z,6.28
2018-05-06T14:23:54.245Z,11.02
2018-05-06T14:25:01.119Z,20.60
2018-05-06T14:26:08.051Z,31.10
2018-05-06T14:27:14.911Z,14.80
2018-05-06T14:28:21.963Z,18.42
2018-05-06T14:29:29.705Z,15.48
2018-05-06T14:30:37.937Z,9.90
2018-05-06T14:31:45.172Z,6.75
2018-05-06T14:32:52.173Z,7.97
2018-05-06T14:34:00.123Z,8.60
2018-05-06T14:35:07.337Z,6.55
2018-05-06T14:36:15.137Z,5.68
2018-05-06T14:37:22.140Z,3.20
2018-05-06T14:38:29.158Z,5.20
2018-05-06T14:39:36.144Z,3.53
2018-05-06T14:40:44.175Z,12.37
2018-05-06T14:41:51.661Z,12.50
2018-05-06T14:42:59.492Z,54.33